sensor_id;sensor_type;location;lat;lon;timestamp;P1;durP1;ratioP1;P2;durP2;ratioP2
5454;SDS011;2750;49.050;9.250;2022-11-20T00:01:35;28.37;;;15.87;;
5454;SDS011;2750;49.050;9.250;2022-11-20T00:06:38;29.50;;;18.03;;
5454;SDS011;2750;49.050;9.250;2022-11-20T00:11:40;20.47;;;12.93;;
5454;SDS011;2750;49.050;9.250;2022-11-20T00:16:42;25.87;;;14.60;;
5454;SDS011;2750;49.050;9.250;2022-11-20T00:21:44;26.20;;;16.03;;
5454;SDS011;2750;49.050;9.250;2022-11-20T00:26:46;26.57;;;15.63;;
5454;SDS011;2750;49.050;9.250;2022-11-20T00:31:47;29.83;;;16.17;;
5454;SDS011;2750;49.050;9.250;2022-11-20T00:36:50;27.47;;;14.93;;
5454;SDS011;2750;49.050;9.250;2022-11-20T00:41:52;20.97;;;13.67;;
5454;SDS011;2750;49.050;9.250;2022-11-20T00:46:53;26.00;;;15.20;;
5454;SDS011;2750;49.050;9.250;2022-11-20T00:51:56;27.33;;;14.50;;
5454;SDS011;2750;49.050;9.250;2022-11-20T00:56:57;27.90;;;14.83;;
5454;SDS011;2750;49.050;9.250;2022-11-20T01:01:59;27.00;;;14.77;;
5454;SDS011;2750;49.050;9.250;2022-11-20T01:07:02;30.60;;;15.90;;
5454;SDS011;2750;49.050;9.250;2022-11-20T01:12:03;32.57;;;16.23;;
5454;SDS011;2750;49.050;9.250;2022-11-20T01:17:05;31.03;;;16.67;;
5454;SDS011;2750;49.050;9.250;2022-11-20T01:22:08;30.60;;;16.80;;
5454;SDS011;2750;49.050;9.250;2022-11-20T01:27:10;32.97;;;17.20;;
5454;SDS011;2750;49.050;9.250;2022-11-20T01:32:11;31.30;;;17.03;;
5454;SDS011;2750;49.050;9.250;2022-11-20T01:37:14;32.07;;;16.63;;
5454;SDS011;2750;49.050;9.250;2022-11-20T01:42:15;34.47;;;18.63;;
5454;SDS011;2750;49.050;9.250;2022-11-20T01:47:35;36.93;;;16.47;;
5454;SDS011;2750;49.050;9.250;2022-11-20T01:52:42;34.70;;;18.33;;
5454;SDS011;2750;49.050;9.250;2022-11-20T01:57:49;31.13;;;17.53;;
5454;SDS011;2750;49.050;9.250;2022-11-20T02:02:52;34.77;;;18.30;;
5454;SDS011;2750;49.050;9.250;2022-11-20T02:07:58;32.50;;;17.33;;
5454;SDS011;2750;49.050;9.250;2022-11-20T02:13:00;33.07;;;17.17;;
5454;SDS011;2750;49.050;9.250;2022-11-20T02:18:20;32.37;;;18.77;;
5454;SDS011;2750;49.050;9.250;2022-11-20T02:23:24;35.13;;;19.30;;
5454;SDS011;2750;49.050;9.250;2022-11-20T02:28:34;35.13;;;19.70;;
5454;SDS011;2750;49.050;9.250;2022-11-20T02:33:36;37.10;;;19.50;;
5454;SDS011;2750;49.050;9.250;2022-11-20T02:38:37;31.33;;;17.77;;
5454;SDS011;2750;49.050;9.250;2022-11-20T02:43:40;30.87;;;18.87;;
5454;SDS011;2750;49.050;9.250;2022-11-20T02:48:42;29.17;;;18.90;;
5454;SDS011;2750;49.050;9.250;2022-11-20T02:53:43;35.03;;;17.83;;
5454;SDS011;2750;49.050;9.250;2022-11-20T02:58:46;33.07;;;19.10;;
5454;SDS011;2750;49.050;9.250;2022-11-20T03:03:48;30.90;;;18.73;;
5454;SDS011;2750;49.050;9.250;2022-11-20T03:08:49;29.40;;;18.70;;
5454;SDS011;2750;49.050;9.250;2022-11-20T03:13:52;29.13;;;18.03;;
5454;SDS011;2750;49.050;9.250;2022-11-20T03:18:54;25.30;;;17.70;;
5454;SDS011;2750;49.050;9.250;2022-11-20T03:23:55;26.20;;;15.20;;
5454;SDS011;2750;49.050;9.250;2022-11-20T03:28:59;24.67;;;15.70;;
5454;SDS011;2750;49.050;9.250;2022-11-20T03:34:02;22.67;;;15.63;;
5454;SDS011;2750;49.050;9.250;2022-11-20T03:39:05;22.97;;;14.97;;
5454;SDS011;2750;49.050;9.250;2022-11-20T03:44:08;21.40;;;14.63;;
5454;SDS011;2750;49.050;9.250;2022-11-20T03:49:11;22.43;;;14.13;;
5454;SDS011;2750;49.050;9.250;2022-11-20T03:54:13;20.53;;;14.70;;
5454;SDS011;2750;49.050;9.250;2022-11-20T03:59:16;21.83;;;13.63;;
5454;SDS011;2750;49.050;9.250;2022-11-20T04:04:17;22.73;;;12.63;;
5454;SDS011;2750;49.050;9.250;2022-11-20T04:09:19;17.03;;;12.23;;
5454;SDS011;2750;49.050;9.250;2022-11-20T04:14:22;16.27;;;11.17;;
5454;SDS011;2750;49.050;9.250;2022-11-20T04:19:24;16.73;;;11.47;;
5454;SDS011;2750;49.050;9.250;2022-11-20T04:24:25;15.70;;;10.97;;
5454;SDS011;2750;49.050;9.250;2022-11-20T04:29:28;16.33;;;11.00;;
5454;SDS011;2750;49.050;9.250;2022-11-20T04:34:30;12.43;;;9.57;;
5454;SDS011;2750;49.050;9.250;2022-11-20T04:39:31;15.40;;;9.50;;
5454;SDS011;2750;49.050;9.250;2022-11-20T04:44:34;11.33;;;8.40;;
5454;SDS011;2750;49.050;9.250;2022-11-20T04:49:36;12.37;;;8.17;;
5454;SDS011;2750;49.050;9.250;2022-11-20T04:54:37;12.43;;;8.37;;
5454;SDS011;2750;49.050;9.250;2022-11-20T04:59:40;9.47;;;7.00;;
5454;SDS011;2750;49.050;9.250;2022-11-20T05:04:42;9.80;;;7.10;;
5454;SDS011;2750;49.050;9.250;2022-11-20T05:09:43;9.80;;;7.40;;
5454;SDS011;2750;49.050;9.250;2022-11-20T05:14:46;9.43;;;6.60;;
5454;SDS011;2750;49.050;9.250;2022-11-20T05:19:48;8.07;;;6.63;;
5454;SDS011;2750;49.050;9.250;2022-11-20T05:24:49;7.60;;;6.30;;
5454;SDS011;2750;49.050;9.250;2022-11-20T05:29:52;9.97;;;8.17;;
5454;SDS011;2750;49.050;9.250;2022-11-20T05:34:54;9.03;;;6.87;;
5454;SDS011;2750;49.050;9.250;2022-11-20T05:39:55;9.70;;;8.37;;
5454;SDS011;2750;49.050;9.250;2022-11-20T05:44:58;10.33;;;7.90;;
5454;SDS011;2750;49.050;9.250;2022-11-20T05:50:00;10.67;;;8.13;;
5454;SDS011;2750;49.050;9.250;2022-11-20T05:55:02;10.63;;;7.77;;
5454;SDS011;2750;49.050;9.250;2022-11-20T06:00:06;11.50;;;10.30;;
5454;SDS011;2750;49.050;9.250;2022-11-20T06:05:08;12.23;;;10.97;;
5454;SDS011;2750;49.050;9.250;2022-11-20T06:10:10;12.10;;;9.77;;
5454;SDS011;2750;49.050;9.250;2022-11-20T06:15:13;12.00;;;8.77;;
5454;SDS011;2750;49.050;9.250;2022-11-20T06:20:15;9.43;;;7.90;;
5454;SDS011;2750;49.050;9.250;2022-11-20T06:25:16;6.93;;;6.23;;
5454;SDS011;2750;49.050;9.250;2022-11-20T06:30:19;7.80;;;7.03;;
5454;SDS011;2750;49.050;9.250;2022-11-20T06:35:21;7.57;;;6.47;;
5454;SDS011;2750;49.050;9.250;2022-11-20T06:40:22;7.27;;;6.57;;
5454;SDS011;2750;49.050;9.250;2022-11-20T06:45:25;7.07;;;5.70;;
5454;SDS011;2750;49.050;9.250;2022-11-20T06:50:27;8.67;;;6.40;;
5454;SDS011;2750;49.050;9.250;2022-11-20T06:55:28;6.67;;;5.97;;
5454;SDS011;2750;49.050;9.250;2022-11-20T07:00:31;7.27;;;5.43;;
5454;SDS011;2750;49.050;9.250;2022-11-20T07:05:33;7.77;;;5.93;;
5454;SDS011;2750;49.050;9.250;2022-11-20T07:10:35;8.73;;;7.43;;
5454;SDS011;2750;49.050;9.250;2022-11-20T07:15:38;9.13;;;6.73;;
5454;SDS011;2750;49.050;9.250;2022-11-20T07:20:39;8.17;;;6.60;;
5454;SDS011;2750;49.050;9.250;2022-11-20T07:25:41;6.93;;;5.83;;
5454;SDS011;2750;49.050;9.250;2022-11-20T07:30:43;6.50;;;5.83;;
5454;SDS011;2750;49.050;9.250;2022-11-20T07:35:50;7.47;;;5.50;;
5454;SDS011;2750;49.050;9.250;2022-11-20T07:40:53;9.10;;;5.90;;
5454;SDS011;2750;49.050;9.250;2022-11-20T07:45:57;6.27;;;5.60;;
5454;SDS011;2750;49.050;9.250;2022-11-20T07:50:59;6.63;;;5.33;;
5454;SDS011;2750;49.050;9.250;2022-11-20T07:56:01;8.43;;;5.67;;
5454;SDS011;2750;49.050;9.250;2022-11-20T08:01:05;6.50;;;4.10;;
5454;SDS011;2750;49.050;9.250;2022-11-20T08:06:07;5.50;;;4.27;;
5454;SDS011;2750;49.050;9.250;2022-11-20T08:11:09;4.93;;;3.80;;
5454;SDS011;2750;49.050;9.250;2022-11-20T08:16:29;5.50;;;5.00;;
5454;SDS011;2750;49.050;9.250;2022-11-20T08:21:31;4.20;;;3.80;;
5454;SDS011;2750;49.050;9.250;2022-11-20T08:26:33;5.30;;;3.50;;
5454;SDS011;2750;49.050;9.250;2022-11-20T08:31:36;5.17;;;3.47;;
5454;SDS011;2750;49.050;9.250;2022-11-20T08:36:38;3.90;;;3.43;;
5454;SDS011;2750;49.050;9.250;2022-11-20T08:41:39;4.23;;;3.50;;
5454;SDS011;2750;49.050;9.250;2022-11-20T08:46:42;3.83;;;3.43;;
5454;SDS011;2750;49.050;9.250;2022-11-20T08:51:45;3.47;;;3.17;;
5454;SDS011;2750;49.050;9.250;2022-11-20T08:56:51;3.80;;;3.50;;
5454;SDS011;2750;49.050;9.250;2022-11-20T09:01:54;4.53;;;4.13;;
5454;SDS011;2750;49.050;9.250;2022-11-20T09:06:56;3.60;;;2.93;;
5454;SDS011;2750;49.050;9.250;2022-11-20T09:11:57;3.00;;;2.70;;
5454;SDS011;2750;49.050;9.250;2022-11-20T09:17:00;4.73;;;2.87;;
5454;SDS011;2750;49.050;9.250;2022-11-20T09:22:02;5.03;;;3.07;;
5454;SDS011;2750;49.050;9.250;2022-11-20T09:27:04;2.73;;;2.40;;
5454;SDS011;2750;49.050;9.250;2022-11-20T09:32:07;4.90;;;3.00;;
5454;SDS011;2750;49.050;9.250;2022-11-20T09:37:08;3.10;;;2.80;;
5454;SDS011;2750;49.050;9.250;2022-11-20T09:42:16;3.37;;;2.90;;
5454;SDS011;2750;49.050;9.250;2022-11-20T09:47:38;4.17;;;2.97;;
5454;SDS011;2750;49.050;9.250;2022-11-20T09:52:52;4.50;;;3.83;;
5454;SDS011;2750;49.050;9.250;2022-11-20T09:58:00;5.50;;;3.77;;
5454;SDS011;2750;49.050;9.250;2022-11-20T10:03:11;3.87;;;3.57;;
5454;SDS011;2750;49.050;9.250;2022-11-20T10:08:16;4.77;;;4.33;;
5454;SDS011;2750;49.050;9.250;2022-11-20T10:13:32;5.50;;;4.70;;
5454;SDS011;2750;49.050;9.250;2022-11-20T10:18:46;5.33;;;4.27;;
5454;SDS011;2750;49.050;9.250;2022-11-20T10:24:04;4.30;;;3.90;;
5454;SDS011;2750;49.050;9.250;2022-11-20T10:29:29;2.70;;;2.50;;
5454;SDS011;2750;49.050;9.250;2022-11-20T10:34:41;2.70;;;2.50;;
5454;SDS011;2750;49.050;9.250;2022-11-20T10:39:50;3.97;;;3.03;;
5454;SDS011;2750;49.050;9.250;2022-11-20T10:44:58;4.00;;;3.60;;
5454;SDS011;2750;49.050;9.250;2022-11-20T10:50:13;4.53;;;3.23;;
5454;SDS011;2750;49.050;9.250;2022-11-20T10:55:23;6.00;;;3.50;;
5454;SDS011;2750;49.050;9.250;2022-11-20T11:00:30;4.13;;;3.77;;
5454;SDS011;2750;49.050;9.250;2022-11-20T11:05:36;3.50;;;3.20;;
5454;SDS011;2750;49.050;9.250;2022-11-20T11:10:42;5.17;;;3.87;;
5454;SDS011;2750;49.050;9.250;2022-11-20T11:15:49;3.97;;;3.57;;
5454;SDS011;2750;49.050;9.250;2022-11-20T11:20:53;3.13;;;2.90;;
5454;SDS011;2750;49.050;9.250;2022-11-20T11:25:56;4.73;;;4.00;;
5454;SDS011;2750;49.050;9.250;2022-11-20T11:30:59;3.40;;;3.10;;
5454;SDS011;2750;49.050;9.250;2022-11-20T11:36:03;5.00;;;4.47;;
5454;SDS011;2750;49.050;9.250;2022-11-20T11:41:18;6.97;;;4.80;;
5454;SDS011;2750;49.050;9.250;2022-11-20T11:46:27;6.80;;;4.87;;
5454;SDS011;2750;49.050;9.250;2022-11-20T11:51:34;7.73;;;4.93;;
5454;SDS011;2750;49.050;9.250;2022-11-20T11:56:40;4.20;;;3.80;;
5454;SDS011;2750;49.050;9.250;2022-11-20T12:01:43;7.57;;;4.03;;
5454;SDS011;2750;49.050;9.250;2022-11-20T12:06:50;4.80;;;3.67;;
5454;SDS011;2750;49.050;9.250;2022-11-20T12:12:01;5.57;;;3.23;;
5454;SDS011;2750;49.050;9.250;2022-11-20T12:17:09;6.13;;;3.37;;
5454;SDS011;2750;49.050;9.250;2022-11-20T12:22:17;6.73;;;3.53;;
5454;SDS011;2750;49.050;9.250;2022-11-20T12:27:36;5.37;;;3.93;;
5454;SDS011;2750;49.050;9.250;2022-11-20T12:32:58;4.10;;;3.03;;
5454;SDS011;2750;49.050;9.250;2022-11-20T12:38:21;7.23;;;3.30;;
5454;SDS011;2750;49.050;9.250;2022-11-20T12:43:37;7.60;;;2.70;;
5454;SDS011;2750;49.050;9.250;2022-11-20T12:49:22;4.00;;;2.80;;
5454;SDS011;2750;49.050;9.250;2022-11-20T12:54:40;5.83;;;3.80;;
5454;SDS011;2750;49.050;9.250;2022-11-20T13:00:07;3.40;;;2.70;;
5454;SDS011;2750;49.050;9.250;2022-11-20T13:05:17;6.73;;;2.80;;
5454;SDS011;2750;49.050;9.250;2022-11-20T13:10:26;2.83;;;2.30;;
5454;SDS011;2750;49.050;9.250;2022-11-20T13:15:37;4.23;;;2.33;;
5454;SDS011;2750;49.050;9.250;2022-11-20T13:20:48;2.60;;;2.07;;
5454;SDS011;2750;49.050;9.250;2022-11-20T13:26:02;6.70;;;3.20;;
5454;SDS011;2750;49.050;9.250;2022-11-20T13:31:09;3.00;;;2.13;;
5454;SDS011;2750;49.050;9.250;2022-11-20T13:36:29;4.97;;;2.20;;
5454;SDS011;2750;49.050;9.250;2022-11-20T13:41:34;5.30;;;2.10;;
5454;SDS011;2750;49.050;9.250;2022-11-20T13:46:40;3.13;;;2.17;;
5454;SDS011;2750;49.050;9.250;2022-11-20T13:51:44;2.57;;;1.70;;
5454;SDS011;2750;49.050;9.250;2022-11-20T13:56:53;3.07;;;1.90;;
5454;SDS011;2750;49.050;9.250;2022-11-20T14:02:05;3.33;;;1.70;;
5454;SDS011;2750;49.050;9.250;2022-11-20T14:07:13;4.47;;;1.90;;
5454;SDS011;2750;49.050;9.250;2022-11-20T14:12:18;2.37;;;1.53;;
5454;SDS011;2750;49.050;9.250;2022-11-20T14:17:22;3.40;;;1.77;;
5454;SDS011;2750;49.050;9.250;2022-11-20T14:22:25;2.37;;;2.17;;
5454;SDS011;2750;49.050;9.250;2022-11-20T14:27:32;4.97;;;2.60;;
5454;SDS011;2750;49.050;9.250;2022-11-20T14:32:35;5.17;;;3.33;;
5454;SDS011;2750;49.050;9.250;2022-11-20T14:37:37;8.20;;;3.70;;
5454;SDS011;2750;49.050;9.250;2022-11-20T14:42:43;6.70;;;3.33;;
5454;SDS011;2750;49.050;9.250;2022-11-20T14:47:44;9.40;;;3.73;;
5454;SDS011;2750;49.050;9.250;2022-11-20T14:52:50;5.53;;;3.33;;
5454;SDS011;2750;49.050;9.250;2022-11-20T14:57:58;7.00;;;3.43;;
5454;SDS011;2750;49.050;9.250;2022-11-20T15:03:01;7.27;;;3.50;;
5454;SDS011;2750;49.050;9.250;2022-11-20T15:08:06;4.57;;;2.23;;
5454;SDS011;2750;49.050;9.250;2022-11-20T15:13:12;8.20;;;2.73;;
5454;SDS011;2750;49.050;9.250;2022-11-20T15:18:17;13.03;;;4.67;;
5454;SDS011;2750;49.050;9.250;2022-11-20T15:23:20;3.07;;;1.73;;
5454;SDS011;2750;49.050;9.250;2022-11-20T15:28:26;3.30;;;2.43;;
5454;SDS011;2750;49.050;9.250;2022-11-20T15:33:32;6.87;;;3.57;;
5454;SDS011;2750;49.050;9.250;2022-11-20T15:38:34;6.00;;;5.50;;
5454;SDS011;2750;49.050;9.250;2022-11-20T15:43:37;5.40;;;2.90;;
5454;SDS011;2750;49.050;9.250;2022-11-20T15:48:40;2.53;;;2.30;;
5454;SDS011;2750;49.050;9.250;2022-11-20T15:53:43;3.10;;;2.80;;
5454;SDS011;2750;49.050;9.250;2022-11-20T15:58:46;5.63;;;4.03;;
5454;SDS011;2750;49.050;9.250;2022-11-20T16:03:48;8.37;;;5.13;;
5454;SDS011;2750;49.050;9.250;2022-11-20T16:08:50;3.57;;;2.43;;
5454;SDS011;2750;49.050;9.250;2022-11-20T16:13:53;7.10;;;4.30;;
5454;SDS011;2750;49.050;9.250;2022-11-20T16:19:12;14.27;;;7.33;;
5454;SDS011;2750;49.050;9.250;2022-11-20T16:24:15;8.03;;;4.80;;
5454;SDS011;2750;49.050;9.250;2022-11-20T16:29:18;13.17;;;5.63;;
5454;SDS011;2750;49.050;9.250;2022-11-20T16:34:20;7.83;;;3.97;;
5454;SDS011;2750;49.050;9.250;2022-11-20T16:39:21;6.40;;;4.27;;
5454;SDS011;2750;49.050;9.250;2022-11-20T16:44:24;3.27;;;2.30;;
5454;SDS011;2750;49.050;9.250;2022-11-20T16:49:26;6.13;;;2.27;;
5454;SDS011;2750;49.050;9.250;2022-11-20T16:54:27;3.87;;;2.47;;
5454;SDS011;2750;49.050;9.250;2022-11-20T16:59:30;3.73;;;2.43;;
5454;SDS011;2750;49.050;9.250;2022-11-20T17:04:32;2.93;;;2.10;;
5454;SDS011;2750;49.050;9.250;2022-11-20T17:09:33;2.90;;;2.20;;
5454;SDS011;2750;49.050;9.250;2022-11-20T17:14:36;5.47;;;2.60;;
5454;SDS011;2750;49.050;9.250;2022-11-20T17:19:38;2.93;;;2.63;;
5454;SDS011;2750;49.050;9.250;2022-11-20T17:24:39;6.07;;;3.27;;
5454;SDS011;2750;49.050;9.250;2022-11-20T17:29:42;3.60;;;2.80;;
5454;SDS011;2750;49.050;9.250;2022-11-20T17:34:45;7.77;;;3.20;;
5454;SDS011;2750;49.050;9.250;2022-11-20T17:39:47;5.03;;;3.10;;
5454;SDS011;2750;49.050;9.250;2022-11-20T17:44:50;4.10;;;3.20;;
5454;SDS011;2750;49.050;9.250;2022-11-20T17:49:51;4.63;;;3.10;;
5454;SDS011;2750;49.050;9.250;2022-11-20T17:54:54;6.13;;;3.40;;
5454;SDS011;2750;49.050;9.250;2022-11-20T17:59:58;5.10;;;3.67;;
5454;SDS011;2750;49.050;9.250;2022-11-20T18:04:59;4.30;;;2.80;;
5454;SDS011;2750;49.050;9.250;2022-11-20T18:10:01;4.70;;;2.90;;
5454;SDS011;2750;49.050;9.250;2022-11-20T18:15:04;4.43;;;3.30;;
5454;SDS011;2750;49.050;9.250;2022-11-20T18:20:06;3.87;;;2.77;;
5454;SDS011;2750;49.050;9.250;2022-11-20T18:25:09;3.63;;;3.33;;
5454;SDS011;2750;49.050;9.250;2022-11-20T18:35:16;4.70;;;3.50;;
5454;SDS011;2750;49.050;9.250;2022-11-20T18:40:17;5.50;;;3.37;;
5454;SDS011;2750;49.050;9.250;2022-11-20T18:45:20;3.97;;;3.50;;
5454;SDS011;2750;49.050;9.250;2022-11-20T18:50:21;6.03;;;3.20;;
5454;SDS011;2750;49.050;9.250;2022-11-20T18:55:23;3.33;;;3.03;;
5454;SDS011;2750;49.050;9.250;2022-11-20T19:00:26;4.17;;;3.80;;
5454;SDS011;2750;49.050;9.250;2022-11-20T19:05:27;3.30;;;2.53;;
5454;SDS011;2750;49.050;9.250;2022-11-20T19:10:29;4.73;;;3.30;;
5454;SDS011;2750;49.050;9.250;2022-11-20T19:15:32;3.20;;;2.80;;
5454;SDS011;2750;49.050;9.250;2022-11-20T19:20:36;6.13;;;3.20;;
5454;SDS011;2750;49.050;9.250;2022-11-20T19:25:37;3.37;;;2.70;;
5454;SDS011;2750;49.050;9.250;2022-11-20T19:30:40;8.40;;;7.67;;
5454;SDS011;2750;49.050;9.250;2022-11-20T19:35:42;4.00;;;2.77;;
5454;SDS011;2750;49.050;9.250;2022-11-20T19:40:43;3.43;;;3.00;;
5454;SDS011;2750;49.050;9.250;2022-11-20T19:45:46;3.70;;;2.80;;
5454;SDS011;2750;49.050;9.250;2022-11-20T19:50:48;2.30;;;2.10;;
5454;SDS011;2750;49.050;9.250;2022-11-20T19:55:55;2.47;;;2.20;;
5454;SDS011;2750;49.050;9.250;2022-11-20T20:01:05;3.27;;;2.40;;
5454;SDS011;2750;49.050;9.250;2022-11-20T20:06:08;3.30;;;2.17;;
5454;SDS011;2750;49.050;9.250;2022-11-20T20:11:12;5.67;;;2.57;;
5454;SDS011;2750;49.050;9.250;2022-11-20T20:16:17;4.67;;;2.37;;
5454;SDS011;2750;49.050;9.250;2022-11-20T20:21:20;2.77;;;2.13;;
5454;SDS011;2750;49.050;9.250;2022-11-20T20:26:22;2.30;;;2.10;;
5454;SDS011;2750;49.050;9.250;2022-11-20T20:31:26;4.20;;;2.00;;
5454;SDS011;2750;49.050;9.250;2022-11-20T20:36:29;2.57;;;1.90;;
5454;SDS011;2750;49.050;9.250;2022-11-20T20:41:31;2.30;;;2.10;;
5454;SDS011;2750;49.050;9.250;2022-11-20T20:46:34;1.83;;;1.50;;
5454;SDS011;2750;49.050;9.250;2022-11-20T20:51:35;1.60;;;1.30;;
5454;SDS011;2750;49.050;9.250;2022-11-20T20:56:37;2.63;;;1.10;;
5454;SDS011;2750;49.050;9.250;2022-11-20T21:01:40;2.30;;;1.40;;
5454;SDS011;2750;49.050;9.250;2022-11-20T21:06:41;1.80;;;1.70;;
5454;SDS011;2750;49.050;9.250;2022-11-20T21:11:43;1.73;;;1.50;;
5454;SDS011;2750;49.050;9.250;2022-11-20T21:16:46;1.77;;;1.17;;
5454;SDS011;2750;49.050;9.250;2022-11-20T21:21:47;2.47;;;1.60;;
5454;SDS011;2750;49.050;9.250;2022-11-20T21:27:03;1.80;;;1.40;;
5454;SDS011;2750;49.050;9.250;2022-11-20T21:32:07;2.63;;;1.43;;
5454;SDS011;2750;49.050;9.250;2022-11-20T21:37:08;1.50;;;1.40;;
5454;SDS011;2750;49.050;9.250;2022-11-20T21:42:09;2.10;;;1.50;;
5454;SDS011;2750;49.050;9.250;2022-11-20T21:47:15;1.60;;;1.50;;
5454;SDS011;2750;49.050;9.250;2022-11-20T21:52:16;1.43;;;1.33;;
5454;SDS011;2750;49.050;9.250;2022-11-20T21:57:18;2.27;;;1.60;;
5454;SDS011;2750;49.050;9.250;2022-11-20T22:02:21;2.43;;;1.60;;
5454;SDS011;2750;49.050;9.250;2022-11-20T22:07:22;3.00;;;1.50;;
5454;SDS011;2750;49.050;9.250;2022-11-20T22:12:24;2.10;;;1.53;;
5454;SDS011;2750;49.050;9.250;2022-11-20T22:17:27;3.33;;;1.73;;
5454;SDS011;2750;49.050;9.250;2022-11-20T22:22:42;3.10;;;1.63;;
5454;SDS011;2750;49.050;9.250;2022-11-20T22:27:44;1.50;;;1.20;;
5454;SDS011;2750;49.050;9.250;2022-11-20T22:32:48;2.80;;;1.30;;
5454;SDS011;2750;49.050;9.250;2022-11-20T22:37:50;1.73;;;1.50;;
5454;SDS011;2750;49.050;9.250;2022-11-20T22:42:51;1.60;;;1.37;;
5454;SDS011;2750;49.050;9.250;2022-11-20T22:47:54;1.60;;;1.30;;
5454;SDS011;2750;49.050;9.250;2022-11-20T22:52:56;4.03;;;1.40;;
5454;SDS011;2750;49.050;9.250;2022-11-20T22:57:57;2.20;;;1.40;;
5454;SDS011;2750;49.050;9.250;2022-11-20T23:03:00;2.20;;;1.30;;
5454;SDS011;2750;49.050;9.250;2022-11-20T23:08:01;1.73;;;1.30;;
5454;SDS011;2750;49.050;9.250;2022-11-20T23:13:03;1.47;;;1.13;;
5454;SDS011;2750;49.050;9.250;2022-11-20T23:18:06;1.40;;;1.20;;
5454;SDS011;2750;49.050;9.250;2022-11-20T23:23:07;4.90;;;1.73;;
5454;SDS011;2750;49.050;9.250;2022-11-20T23:28:09;2.03;;;1.20;;
5454;SDS011;2750;49.050;9.250;2022-11-20T23:33:12;2.47;;;1.10;;
5454;SDS011;2750;49.050;9.250;2022-11-20T23:38:13;2.40;;;1.00;;
5454;SDS011;2750;49.050;9.250;2022-11-20T23:43:15;1.77;;;0.87;;
5454;SDS011;2750;49.050;9.250;2022-11-20T23:48:19;3.30;;;1.43;;
5454;SDS011;2750;49.050;9.250;2022-11-20T23:53:22;5.77;;;1.23;;
5454;SDS011;2750;49.050;9.250;2022-11-20T23:58:25;1.80;;;1.30;;
